createdAt,value
2019-06-08T00:00:42.051Z,48.46
2019-06-08T00:05:45.839Z,48.46
2019-06-08T00:10:49.681Z,48.34
2019-06-08T00:15:53.652Z,48.34
2019-06-08T00:20:57.517Z,48.21
2019-06-08T00:26:01.292Z,48.14
2019-06-08T00:31:05.170Z,48.13
2019-06-08T00:36:09.013Z,48.35
2019-06-08T00:41:12.976Z,48.14
2019-06-08T00:46:17.237Z,47.84
2019-06-08T00:51:21.138Z,48.15
2019-06-08T00:56:25.971Z,47.88
2019-06-08T01:01:30.878Z,47.88
2019-06-08T01:06:34.969Z,47.75
2019-06-08T01:11:38.806Z,47.75
2019-06-08T01:16:42.586Z,47.72
2019-06-08T01:21:46.462Z,47.64
2019-06-08T01:26:50.265Z,48.06
2019-06-08T01:31:54.242Z,48.17
2019-06-08T01:36:58.130Z,48.17
2019-06-08T01:42:01.976Z,47.84
2019-06-08T01:47:05.819Z,48.24
2019-06-08T01:52:09.603Z,48.11
2019-06-08T01:57:13.380Z,47.97
2019-06-08T02:02:17.169Z,48.31
2019-06-08T02:07:20.969Z,47.90
2019-06-08T02:12:24.856Z,47.90
2019-06-08T02:17:29.329Z,48.30
2019-06-08T02:22:33.281Z,48.37
2019-06-08T02:27:37.063Z,48.42
2019-06-08T02:32:40.861Z,48.30
2019-06-08T02:37:44.648Z,48.38
2019-06-08T02:42:48.426Z,47.96
2019-06-08T02:47:52.217Z,48.39
2019-06-08T02:52:55.977Z,48.39
2019-06-08T02:57:59.796Z,48.20
2019-06-08T03:03:03.733Z,48.36
2019-06-08T03:08:07.527Z,48.31
2019-06-08T03:13:11.650Z,48.77
2019-06-08T03:18:15.601Z,48.29
2019-06-08T03:23:19.373Z,48.73
2019-06-08T03:28:23.185Z,48.68
2019-06-08T03:33:27.070Z,48.81
2019-06-08T03:38:30.957Z,48.81
2019-06-08T03:43:35.374Z,48.80
2019-06-08T03:48:41.628Z,49.05
2019-06-08T03:53:47.287Z,49.05
2019-06-08T03:58:50.844Z,49.00
2019-06-08T04:03:54.667Z,49.14
2019-06-08T04:08:58.443Z,49.14
2019-06-08T04:14:02.241Z,49.05
2019-06-08T04:19:06.584Z,49.05
2019-06-08T04:24:10.370Z,48.92
2019-06-08T04:29:14.161Z,48.92
2019-06-08T04:34:17.931Z,49.07
2019-06-08T04:39:21.793Z,49.07
2019-06-08T04:44:26.656Z,49.47
2019-06-08T04:49:30.467Z,49.47
2019-06-08T04:54:34.257Z,49.08
2019-06-08T04:59:39.012Z,48.91
2019-06-08T05:04:45.227Z,49.13
2019-06-08T05:09:49.485Z,49.30
2019-06-08T05:14:53.405Z,49.71
2019-06-08T05:19:57.175Z,49.66
2019-06-08T05:25:00.959Z,49.66
2019-06-08T05:30:08.680Z,49.04
2019-06-08T05:35:10.873Z,49.04
2019-06-08T05:40:14.626Z,48.92
2019-06-08T05:45:18.427Z,38.84
2019-06-08T05:50:22.217Z,37.34
2019-06-08T05:55:26.036Z,37.34
2019-06-08T06:00:29.837Z,37.76
2019-06-08T06:05:33.622Z,37.54
2019-06-08T06:10:37.424Z,38.22
2019-06-08T06:15:41.240Z,38.22
2019-06-08T06:20:45.385Z,37.55
2019-06-08T06:25:49.655Z,37.55
2019-06-08T06:30:53.555Z,37.92
2019-06-08T06:35:57.901Z,37.83
2019-06-08T06:41:01.666Z,38.31
2019-06-08T06:46:05.569Z,38.01
2019-06-08T06:51:09.400Z,37.80
2019-06-08T06:56:13.231Z,37.80
2019-06-08T07:01:17.990Z,37.72
2019-06-08T07:06:21.752Z,38.47
2019-06-08T07:11:26.125Z,39.40
2019-06-08T07:16:29.913Z,39.40
2019-06-08T07:21:41.725Z,40.27
2019-06-08T07:26:39.325Z,40.85
2019-06-08T07:31:43.108Z,40.94
2019-06-08T07:36:48.444Z,40.94
2019-06-08T07:41:54.117Z,41.28
2019-06-08T07:46:58.073Z,40.37
2019-06-08T07:52:09.481Z,41.49
2019-06-08T07:57:07.386Z,39.94
2019-06-08T08:02:11.221Z,39.76
2019-06-08T08:07:15.007Z,40.74
2019-06-08T08:12:18.797Z,40.74
2019-06-08T08:17:22.577Z,39.99
2019-06-08T08:22:29.488Z,39.99
2019-06-08T08:27:32.404Z,39.81
2019-06-08T08:32:38.038Z,38.08
2019-06-08T08:37:41.706Z,38.33
2019-06-08T08:42:45.495Z,38.33
2019-06-08T08:47:50.747Z,37.32
2019-06-08T08:52:56.913Z,37.70
2019-06-08T08:58:02.082Z,37.80
2019-06-08T09:03:22.082Z,38.31
2019-06-08T09:08:11.757Z,37.80
2019-06-08T09:13:18.059Z,38.42
2019-06-08T09:18:21.022Z,38.23
2019-06-08T09:23:27.822Z,39.02
2019-06-08T09:28:30.280Z,39.14
2019-06-08T09:33:34.123Z,39.14
2019-06-08T09:38:38.708Z,35.51
2019-06-08T09:43:42.697Z,36.76
2019-06-08T09:48:48.598Z,37.13
2019-06-08T09:53:54.237Z,36.52
2019-06-08T09:59:01.346Z,36.74
2019-06-08T10:04:06.018Z,36.61
2019-06-08T10:09:09.098Z,36.61
2019-06-08T10:14:13.155Z,36.48
2019-06-08T10:19:18.718Z,37.28
2019-06-08T10:24:22.375Z,37.28
2019-06-08T10:29:26.138Z,36.80
2019-06-08T10:34:29.986Z,36.83
2019-06-08T10:39:33.743Z,37.89
2019-06-08T10:44:38.216Z,35.54
2019-06-08T10:49:42.141Z,35.25
2019-06-08T10:54:45.903Z,35.25
2019-06-08T10:59:49.673Z,34.09
2019-06-08T11:04:53.442Z,32.80
2019-06-08T11:09:58.642Z,32.80
2019-06-08T11:15:03.537Z,35.20
2019-06-08T11:20:11.809Z,32.34
2019-06-08T11:25:16.357Z,33.63
2019-06-08T11:30:23.832Z,34.07
2019-06-08T11:35:25.127Z,33.69
2019-06-08T11:40:28.920Z,33.69
2019-06-08T11:45:32.699Z,34.31
2019-06-08T11:50:41.433Z,34.85
2019-06-08T11:55:44.030Z,34.93
2019-06-08T12:01:04.593Z,34.85
2019-06-08T12:06:10.483Z,35.12
2019-06-08T12:11:18.131Z,35.42
2019-06-08T12:16:22.318Z,36.01
2019-06-08T12:21:27.258Z,35.74
2019-06-08T12:26:30.810Z,35.85
2019-06-08T12:31:34.586Z,36.52
2019-06-08T12:36:38.365Z,36.12
2019-06-08T12:41:42.170Z,36.12
2019-06-08T12:46:48.362Z,36.26
2019-06-08T12:51:51.957Z,36.38
2019-06-08T12:56:58.015Z,36.69
2019-06-08T13:02:01.297Z,36.59
2019-06-08T13:07:05.078Z,36.55
2019-06-08T13:12:09.756Z,36.59
2019-06-08T13:17:14.627Z,36.51
2019-06-08T13:22:20.380Z,37.67
2019-06-08T13:27:24.083Z,37.74
2019-06-08T13:32:28.661Z,37.74
2019-06-08T13:37:32.822Z,37.75
2019-06-08T13:42:38.279Z,37.61
2019-06-08T13:47:42.269Z,38.23
2019-06-08T13:52:48.342Z,34.69
2019-06-08T13:57:51.568Z,36.25
2019-06-08T14:02:55.408Z,37.52
2019-06-08T14:08:00.956Z,37.51
2019-06-08T14:13:05.389Z,37.51
2019-06-08T14:18:09.183Z,37.77
2019-06-08T14:23:12.986Z,37.77
2019-06-08T14:28:19.286Z,37.77
2019-06-08T14:33:25.719Z,38.31
2019-06-08T14:38:37.538Z,38.31
2019-06-08T14:43:33.286Z,38.42
2019-06-08T14:48:37.954Z,38.46
2019-06-08T14:53:42.032Z,38.69
2019-06-08T14:58:48.170Z,38.54
2019-06-08T15:03:51.420Z,38.51
2019-06-08T15:08:55.273Z,38.83
2019-06-08T15:13:59.155Z,39.02
2019-06-08T15:19:02.951Z,39.02
2019-06-08T15:24:08.064Z,39.25
2019-06-08T15:29:12.002Z,39.12
2019-06-08T15:34:17.848Z,39.49
2019-06-08T15:39:21.623Z,39.71
2019-06-08T15:44:26.658Z,39.33
2019-06-08T15:49:32.651Z,39.35
2019-06-08T15:54:40.454Z,39.69
2019-06-08T15:59:42.482Z,39.40
2019-06-08T16:04:46.261Z,39.38
2019-06-08T16:09:50.048Z,38.95
2019-06-08T16:14:53.812Z,38.95
2019-06-08T16:19:57.609Z,38.80
2019-06-08T16:25:01.467Z,38.80
2019-06-08T16:30:09.511Z,38.68
2019-06-08T16:35:11.144Z,38.85
2019-06-08T16:40:15.001Z,39.01
2019-06-08T16:45:18.763Z,38.90
2019-06-08T16:50:24.787Z,39.72
2019-06-08T16:55:28.143Z,39.72
2019-06-08T17:00:36.609Z,39.36
2019-06-08T17:05:38.528Z,39.52
2019-06-08T17:10:42.392Z,38.81
2019-06-08T17:15:46.241Z,38.66
2019-06-08T17:20:50.030Z,39.11
2019-06-08T17:25:53.839Z,39.11
2019-06-08T17:30:57.614Z,38.69
2019-06-08T17:36:01.396Z,38.48
2019-06-08T17:41:05.210Z,38.48
2019-06-08T17:46:09.220Z,38.27
2019-06-08T17:51:12.982Z,36.52
2019-06-08T17:56:16.773Z,36.92
2019-06-08T18:01:20.588Z,35.29
2019-06-08T18:06:24.390Z,35.75
2019-06-08T18:11:28.172Z,35.75
2019-06-08T18:16:31.961Z,35.97
2019-06-08T18:21:38.476Z,35.98
2019-06-08T18:26:42.144Z,35.61
2019-06-08T18:31:48.126Z,36.75
2019-06-08T18:36:51.922Z,36.60
2019-06-08T18:41:58.238Z,35.89
2019-06-08T18:47:01.240Z,36.46
2019-06-08T18:52:05.034Z,36.19
2019-06-08T18:57:11.335Z,36.36
2019-06-08T19:02:14.377Z,36.36
2019-06-08T19:07:18.173Z,36.55
2019-06-08T19:12:22.281Z,36.78
2019-06-08T19:17:28.280Z,36.38
2019-06-08T19:22:31.736Z,36.38
2019-06-08T19:27:40.623Z,36.44
2019-06-08T19:32:42.878Z,36.44
2019-06-08T19:37:47.727Z,32.53
2019-06-08T19:42:57.416Z,32.14
2019-06-08T19:47:57.867Z,32.54
2019-06-08T19:53:01.624Z,32.99
2019-06-08T19:58:06.317Z,32.58
2019-06-08T20:03:11.254Z,32.58
2019-06-08T20:08:17.421Z,33.26
2019-06-08T20:13:21.003Z,33.58
2019-06-08T20:18:24.791Z,33.57
2019-06-08T20:23:28.843Z,33.03
2019-06-08T20:28:32.729Z,33.74
2019-06-08T20:33:37.900Z,33.86
2019-06-08T20:38:44.039Z,34.24
2019-06-08T20:43:50.329Z,33.71
2019-06-08T20:48:53.258Z,33.86
2019-06-08T20:53:57.401Z,33.86
2019-06-08T20:59:01.342Z,34.32
2019-06-08T21:04:07.500Z,34.31
2019-06-08T21:09:12.830Z,34.56
2019-06-08T21:14:17.396Z,34.83
2019-06-08T21:19:21.437Z,34.83
2019-06-08T21:24:27.953Z,34.80
2019-06-08T21:29:46.892Z,34.71
2019-06-08T21:34:38.023Z,35.21
2019-06-08T21:39:41.958Z,35.21
2019-06-08T21:44:48.876Z,35.42
2019-06-08T21:49:52.690Z,35.77
2019-06-08T21:54:58.889Z,35.77
2019-06-08T22:00:21.821Z,35.24
2019-06-08T22:05:08.371Z,35.02
2019-06-08T22:10:12.257Z,34.54
2019-06-08T22:15:18.120Z,34.53
2019-06-08T22:20:21.551Z,35.43
2019-06-08T22:25:27.702Z,35.01
2019-06-08T22:30:39.126Z,35.00
2019-06-08T22:35:37.346Z,34.96
2019-06-08T22:40:41.185Z,35.13
2019-06-08T22:45:44.962Z,35.32
2019-06-08T22:50:48.743Z,35.47
2019-06-08T22:55:53.807Z,35.24
2019-06-08T23:01:01.358Z,35.24
2019-06-08T23:06:04.433Z,35.16
2019-06-08T23:11:09.136Z,35.16
2019-06-08T23:16:12.974Z,34.97
2019-06-08T23:21:18.061Z,34.97
2019-06-08T23:26:21.996Z,34.80
2019-06-08T23:31:28.929Z,35.33
2019-06-08T23:36:46.596Z,35.20
2019-06-08T23:41:37.722Z,35.11
2019-06-08T23:46:41.572Z,35.11
2019-06-08T23:51:47.416Z,34.89
2019-06-08T23:56:50.832Z,35.49
